Aura — UBDJ5 — position and weather

sailwx.info

Track history (hours):
 
Tides and Currents Weather Stations Pressure Air Temp Water Temp Dewpoint Dewpoint Depression Visibility Wind Speed Wind Dir Waves Ship Positions

Aura

Last reported at 2017-Dec-09 22:08 UTC. Time now 2017-Dec-11 19:14 UTC.
Position N 46°38' E 031°54'.

Length 140 m; draft 4.5 m.

Type: Tanker. MMSI: 273355480.

Date/timePositionNaut miles runAvg speedWind from/ knotsBaromVisibWave heightAir tempDewpointWater temp
2017-Dec-09 22:08N 46°38' E 031°54'1 8.9
2017-Dec-09 22:00N 46°38' E 031°55'4 8.9
2017-Dec-09 21:30N 46°43' E 031°56'2 3.7
2017-Dec-09 20:57N 46°45' E 031°55'0 0.0
2017-Dec-09 20:21N 46°45' E 031°55'0 0.1
2017-Dec-09 19:57N 46°45' E 031°55'1 3.0
2017-Dec-09 19:30N 46°46' E 031°56'1 1.6
2017-Dec-09 19:00N 46°46' E 031°57'0 0.0
2017-Dec-09 18:30N 46°46' E 031°57'0 0.0
2017-Dec-09 18:00N 46°46' E 031°57'0 0.0
2017-Dec-09 17:30N 46°46' E 031°57'0 0.0
2017-Dec-09 17:00N 46°46' E 031°57'0 0.0
2017-Dec-09 16:30N 46°46' E 031°57'0 0.0
2017-Dec-09 16:00N 46°46' E 031°57'0 0.0
2017-Dec-09 15:30N 46°46' E 031°57'0 0.0
2017-Dec-09 14:48N 46°46' E 031°57'0 0.0
2017-Dec-09 14:30N 46°46' E 031°57'0 0.0
2017-Dec-09 14:00N 46°46' E 031°57'0 0.0
2017-Dec-09 13:27N 46°46' E 031°57'0 0.0
2017-Dec-09 13:00N 46°46' E 031°57'0 0.0
2017-Dec-09 12:30N 46°46' E 031°57'0 0.0
2017-Dec-09 12:00N 46°46' E 031°57'0 0.0
2017-Dec-09 11:30N 46°46' E 031°57'0 0.0
2017-Dec-09 11:00N 46°46' E 031°57'0 0.0
2017-Dec-09 10:27N 46°46' E 031°57'0 0.0
2017-Dec-09 10:00N 46°46' E 031°57'0 0.0
2017-Dec-09 09:30N 46°46' E 031°57'0 0.0
2017-Dec-09 08:54N 46°46' E 031°57'0 0.0
2017-Dec-09 08:30N 46°46' E 031°57'0 0.0
2017-Dec-09 08:00N 46°46' E 031°57'0 0.0
2017-Dec-09 07:30N 46°46' E 031°57'0 0.0
2017-Dec-09 06:57N 46°46' E 031°57'0 0.0
2017-Dec-09 06:30N 46°46' E 031°57'0 0.0
2017-Dec-09 06:00N 46°46' E 031°57'0 0.0
2017-Dec-09 05:30N 46°46' E 031°57'0 0.0
2017-Dec-09 05:00N 46°46' E 031°57'0 0.0
2017-Dec-09 04:30N 46°46' E 031°57'0 0.0
2017-Dec-09 04:00N 46°46' E 031°57'0 0.0
2017-Dec-09 03:27N 46°46' E 031°57'0 0.0
2017-Dec-09 03:00N 46°46' E 031°57'0 0.0
2017-Dec-09 02:30N 46°46' E 031°57'0 0.0
2017-Dec-09 02:00N 46°46' E 031°57'0 0.0
2017-Dec-09 01:30N 46°46' E 031°57'0 0.0
2017-Dec-09 01:00N 46°46' E 031°57'0 0.0
2017-Dec-09 00:30N 46°46' E 031°57'0 0.0
2017-Dec-08 23:57N 46°46' E 031°57'0 0.0
2017-Dec-08 23:30N 46°46' E 031°57'0 0.0
2017-Dec-08 23:00N 46°46' E 031°57'0 0.0
2017-Dec-08 22:30N 46°46' E 031°57'0 0.0
2017-Dec-08 21:48N 46°46' E 031°57'0 0.0
2017-Dec-08 21:30N 46°46' E 031°57'0 0.0
2017-Dec-08 21:00N 46°46' E 031°57'0 0.0
2017-Dec-08 20:27N 46°46' E 031°57'0 0.0
2017-Dec-08 20:00N 46°46' E 031°57'0 0.0
2017-Dec-08 19:30N 46°46' E 031°57'0 0.0
2017-Dec-08 19:00N 46°46' E 031°57'0 0.0
2017-Dec-08 18:30N 46°46' E 031°57'0 0.0
2017-Dec-08 18:00N 46°46' E 031°57'0 1.0
2017-Dec-08 17:30N 46°46' E 031°56'2 2.8
2017-Dec-08 16:54N 46°45' E 031°55'0 0.0
2017-Dec-08 16:30N 46°45' E 031°55'0 0.0
2017-Dec-08 16:00N 46°45' E 031°55'3 5.7
2017-Dec-08 15:30N 46°42' E 031°56'  
Track history (hours):
 
Tides and Currents Weather Stations Pressure Air Temp Water Temp Dewpoint Dewpoint Depression Visibility Wind Speed Wind Dir Waves Ship Positions

Aura

Last reported at 2017-Dec-09 22:08 UTC. Time now 2017-Dec-11 19:14 UTC.
Position N 46°38' E 031°54'.

Length 140 m; draft 4.5 m.

Type: Tanker. MMSI: 273355480.

Date/timePositionNaut miles runAvg speedWind from/ knotsBaromVisibWave heightAir tempDewpointWater temp
2017-Dec-09 22:08N 46°38' E 031°54'1 8.9
2017-Dec-09 22:00N 46°38' E 031°55'4 8.9
2017-Dec-09 21:30N 46°43' E 031°56'2 3.7
2017-Dec-09 20:57N 46°45' E 031°55'0 0.0
2017-Dec-09 20:21N 46°45' E 031°55'0 0.1
2017-Dec-09 19:57N 46°45' E 031°55'1 3.0
2017-Dec-09 19:30N 46°46' E 031°56'1 1.6
2017-Dec-09 19:00N 46°46' E 031°57'0 0.0
2017-Dec-09 18:30N 46°46' E 031°57'0 0.0
2017-Dec-09 18:00N 46°46' E 031°57'0 0.0
2017-Dec-09 17:30N 46°46' E 031°57'0 0.0
2017-Dec-09 17:00N 46°46' E 031°57'0 0.0
2017-Dec-09 16:30N 46°46' E 031°57'0 0.0
2017-Dec-09 16:00N 46°46' E 031°57'0 0.0
2017-Dec-09 15:30N 46°46' E 031°57'0 0.0
2017-Dec-09 14:48N 46°46' E 031°57'0 0.0
2017-Dec-09 14:30N 46°46' E 031°57'0 0.0
2017-Dec-09 14:00N 46°46' E 031°57'0 0.0
2017-Dec-09 13:27N 46°46' E 031°57'0 0.0
2017-Dec-09 13:00N 46°46' E 031°57'0 0.0
2017-Dec-09 12:30N 46°46' E 031°57'0 0.0
2017-Dec-09 12:00N 46°46' E 031°57'0 0.0
2017-Dec-09 11:30N 46°46' E 031°57'0 0.0
2017-Dec-09 11:00N 46°46' E 031°57'0 0.0
2017-Dec-09 10:27N 46°46' E 031°57'0 0.0
2017-Dec-09 10:00N 46°46' E 031°57'0 0.0
2017-Dec-09 09:30N 46°46' E 031°57'0 0.0
2017-Dec-09 08:54N 46°46' E 031°57'0 0.0
2017-Dec-09 08:30N 46°46' E 031°57'0 0.0
2017-Dec-09 08:00N 46°46' E 031°57'0 0.0
2017-Dec-09 07:30N 46°46' E 031°57'0 0.0
2017-Dec-09 06:57N 46°46' E 031°57'0 0.0
2017-Dec-09 06:30N 46°46' E 031°57'0 0.0
2017-Dec-09 06:00N 46°46' E 031°57'0 0.0
2017-Dec-09 05:30N 46°46' E 031°57'0 0.0
2017-Dec-09 05:00N 46°46' E 031°57'0 0.0
2017-Dec-09 04:30N 46°46' E 031°57'0 0.0
2017-Dec-09 04:00N 46°46' E 031°57'0 0.0
2017-Dec-09 03:27N 46°46' E 031°57'0 0.0
2017-Dec-09 03:00N 46°46' E 031°57'0 0.0
2017-Dec-09 02:30N 46°46' E 031°57'0 0.0
2017-Dec-09 02:00N 46°46' E 031°57'0 0.0
2017-Dec-09 01:30N 46°46' E 031°57'0 0.0
2017-Dec-09 01:00N 46°46' E 031°57'0 0.0
2017-Dec-09 00:30N 46°46' E 031°57'0 0.0
2017-Dec-08 23:57N 46°46' E 031°57'0 0.0
2017-Dec-08 23:30N 46°46' E 031°57'0 0.0
2017-Dec-08 23:00N 46°46' E 031°57'0 0.0
2017-Dec-08 22:30N 46°46' E 031°57'0 0.0
2017-Dec-08 21:48N 46°46' E 031°57'0 0.0
2017-Dec-08 21:30N 46°46' E 031°57'0 0.0
2017-Dec-08 21:00N 46°46' E 031°57'0 0.0
2017-Dec-08 20:27N 46°46' E 031°57'0 0.0
2017-Dec-08 20:00N 46°46' E 031°57'0 0.0
2017-Dec-08 19:30N 46°46' E 031°57'0 0.0
2017-Dec-08 19:00N 46°46' E 031°57'0 0.0
2017-Dec-08 18:30N 46°46' E 031°57'0 0.0
2017-Dec-08 18:00N 46°46' E 031°57'0 1.0
2017-Dec-08 17:30N 46°46' E 031°56'2 2.8
2017-Dec-08 16:54N 46°45' E 031°55'0 0.0
2017-Dec-08 16:30N 46°45' E 031°55'0 0.0
2017-Dec-08 16:00N 46°45' E 031°55'3 5.7
2017-Dec-08 15:30N 46°42' E 031°56'  

Dump ship's entire track history